Etusivu
METAR-TAF:

METAR-TAF

Lentoasemat :

Kassel, Saksa

Leveyspiiri: 51-24N, Pituuspiiri: 009-23E, korkeus merenpinnasta: 277 m

Tämänhetkinen sää

Tämä raportti tehtiin 22 minuuttia sitten, kello 16.50 UTC
Tuuli 6 kn idästä
Lämpötila 0°C
Kosteus 69%
Ilmanpaine 1023 hPa
Näkyvyys 10 km tai enemmän
Pilvistä 2700 ft:n korkeudessa

METAR: EDVK 141650Z 08006KT 9999 OVC027 M00/M05 Q1023

Aika: 18:12 (17:12 UTC)

Sääennuste

Tämä raportti tehtiin 3 tuntia ja 12 minuuttia sitten, kello 14.00 UTC
Ennuste voimassa 14. päivästä klo 15 UTC - 14. päivään klo 24 UTC
Tuuli 6 kn idästä
Näkyvyys 10 km tai enemmän
Pilvistä 2500 ft:n korkeudessa

TAF: EDVK 141400Z 1415/1424 08006KT 9999 OVC025

Säähavainnot ja -ennusteet yli 4000 lentoasemalta (METAR- ja TAF-raportit).

Käytössä olevat sääasemat on merkitty karttaan keltaisilla ja punaisilla pisteillä.

Aseta hiiri pisteen päälle nähdäksesi sääaseman nimen.

Klikkaa sitten nähdäksesi säähavainnot ja -ennusteet.

Kartan vaihtaminen: klikkaa mustalla rastilla varustettuja vihreitä pisteitä, niin voit zoomata sisään; viivalla varustettua vihreää pistettä, niin voit zoomata ulos tai vihreitä nuolia, niin pääset viereisille kartoille.


METAR-TAF: